createdAt,value
2023-10-11T00:01:21.020Z,98145.91
2023-10-11T00:03:54.502Z,98145.09
2023-10-11T00:06:25.694Z,98141.53
2023-10-11T00:08:54.700Z,98147.91
2023-10-11T00:11:31.473Z,98142.78
2023-10-11T00:13:59.696Z,98140.41
2023-10-11T00:16:32.797Z,98137.88
2023-10-11T00:19:01.077Z,98132.59
2023-10-11T00:21:41.912Z,98137.53
2023-10-11T00:24:10.405Z,98140.13
2023-10-11T00:26:41.346Z,98136.13
2023-10-11T00:29:10.447Z,98135.66
2023-10-11T00:31:39.549Z,98130.44
2023-10-11T00:34:13.687Z,98131.66
2023-10-11T00:36:46.941Z,98136.09
2023-10-11T00:39:19.206Z,98136.50
2023-10-11T00:41:50.613Z,98136.50
2023-10-11T00:44:21.564Z,98122.81
2023-10-11T00:47:01.373Z,98124.84
2023-10-11T00:49:38.045Z,98136.75
2023-10-11T00:52:08.648Z,98127.25
2023-10-11T00:54:44.048Z,98132.25
2023-10-11T00:57:16.528Z,98125.75
2023-10-11T00:59:45.502Z,98121.88
2023-10-11T01:02:15.760Z,98129.28
2023-10-11T01:04:44.417Z,98125.06
2023-10-11T01:07:14.435Z,98129.97
2023-10-11T01:09:44.811Z,98123.34
2023-10-11T01:12:14.732Z,98127.44
2023-10-11T01:14:58.260Z,98126.81
2023-10-11T01:17:28.065Z,98126.16
2023-10-11T01:19:56.301Z,98119.44
2023-10-11T01:22:28.088Z,98114.78
2023-10-11T01:24:59.442Z,98120.91
2023-10-11T01:27:31.753Z,98117.69
2023-10-11T01:30:00.490Z,98110.72
2023-10-11T01:32:29.794Z,98115.03
2023-10-11T01:34:58.025Z,98106.22
2023-10-11T01:37:27.789Z,98107.00
2023-10-11T01:39:56.077Z,98107.53
2023-10-11T01:42:24.462Z,98118.13
2023-10-11T01:44:52.775Z,98116.22
2023-10-11T01:47:21.369Z,98123.50
2023-10-11T01:49:53.922Z,98122.22
2023-10-11T01:52:22.482Z,98121.63
2023-10-11T01:54:52.094Z,98118.03
2023-10-11T01:57:21.514Z,98120.81
2023-10-11T01:59:49.842Z,98115.00
2023-10-11T02:02:18.103Z,98110.22
2023-10-11T02:04:46.550Z,98102.69
2023-10-11T02:07:15.571Z,98103.00
2023-10-11T02:09:44.408Z,98107.69
2023-10-11T02:12:18.729Z,98101.53
2023-10-11T02:14:47.451Z,98106.34
2023-10-11T02:17:19.283Z,98105.56
2023-10-11T02:19:47.579Z,98105.75
2023-10-11T02:22:19.916Z,98100.88
2023-10-11T02:24:48.258Z,98106.28
2023-10-11T02:27:19.064Z,98108.06
2023-10-11T02:29:48.898Z,98095.81
2023-10-11T02:32:17.354Z,98101.69
2023-10-11T02:34:48.361Z,98109.16
2023-10-11T02:37:17.648Z,98092.69
2023-10-11T02:39:46.832Z,98093.34
2023-10-11T02:42:20.275Z,98092.69
2023-10-11T02:44:50.619Z,98098.00
2023-10-11T02:47:23.828Z,98086.50
2023-10-11T02:49:55.004Z,98086.63
2023-10-11T02:52:30.716Z,98083.72
2023-10-11T02:55:01.097Z,98087.75
2023-10-11T02:57:29.472Z,98085.16
2023-10-11T02:59:59.106Z,98087.53
2023-10-11T03:02:31.258Z,98093.41
2023-10-11T03:05:02.867Z,98095.41
2023-10-11T03:07:34.516Z,98086.88
2023-10-11T03:10:04.732Z,98089.63
2023-10-11T03:12:35.643Z,98091.81
2023-10-11T03:15:10.152Z,98088.31
2023-10-11T03:17:43.693Z,98082.84
2023-10-11T03:20:36.974Z,98079.50
2023-10-11T03:23:12.301Z,98086.44
2023-10-11T03:25:50.888Z,98076.03
2023-10-11T03:28:27.361Z,98087.88
2023-10-11T03:30:57.632Z,98075.38
2023-10-11T03:33:25.983Z,98075.38
2023-10-11T03:35:56.261Z,98080.34
2023-10-11T03:38:25.315Z,98073.63
2023-10-11T03:40:56.724Z,98075.75
2023-10-11T03:43:27.369Z,98066.84
2023-10-11T03:46:00.846Z,98077.59
2023-10-11T03:48:31.801Z,98086.38
2023-10-11T03:51:00.802Z,98081.16
2023-10-11T03:53:33.034Z,98084.31
2023-10-11T03:56:03.214Z,98088.38
2023-10-11T03:58:34.013Z,98079.34
2023-10-11T04:01:13.801Z,98073.06
2023-10-11T04:03:43.959Z,98075.88
2023-10-11T04:06:16.171Z,98082.97
2023-10-11T04:08:49.893Z,98078.75
2023-10-11T04:11:20.084Z,98076.94
2023-10-11T04:13:50.410Z,98080.06
2023-10-11T04:16:20.031Z,98082.94
2023-10-11T04:18:53.297Z,98085.50
2023-10-11T04:21:39.325Z,98082.44
2023-10-11T04:24:08.644Z,98087.31
2023-10-11T04:26:41.651Z,98084.59
2023-10-11T04:29:18.026Z,98088.56
2023-10-11T04:32:10.561Z,98082.84
2023-10-11T04:34:46.556Z,98085.41
2023-10-11T04:37:28.321Z,98081.84
2023-10-11T04:40:15.916Z,98082.66
2023-10-11T04:42:44.236Z,98084.25
2023-10-11T04:45:22.953Z,98085.75
2023-10-11T04:47:54.974Z,98084.28
2023-10-11T04:50:25.786Z,98077.72
2023-10-11T04:52:57.384Z,98086.03
2023-10-11T04:55:36.007Z,98085.09
2023-10-11T04:58:05.569Z,98090.25
2023-10-11T05:00:45.645Z,98079.97
2023-10-11T05:03:18.854Z,98083.88
2023-10-11T05:05:59.860Z,98085.09
2023-10-11T05:08:52.502Z,98086.69
2023-10-11T05:11:37.183Z,98079.78
2023-10-11T05:14:23.659Z,98084.59
2023-10-11T05:16:52.231Z,98078.84
2023-10-11T05:19:22.557Z,98086.44
2023-10-11T05:22:03.560Z,98090.25
2023-10-11T05:24:45.236Z,98088.00
2023-10-11T05:27:26.766Z,98097.16
2023-10-11T05:30:12.544Z,98100.59
2023-10-11T05:32:50.800Z,98103.59
2023-10-11T05:35:28.085Z,98107.31
2023-10-11T05:38:14.700Z,98110.03
2023-10-11T05:41:00.761Z,98112.91
2023-10-11T05:43:46.814Z,98119.03
2023-10-11T05:46:32.873Z,98119.19
2023-10-11T05:49:19.040Z,98122.03
2023-10-11T05:51:49.462Z,98120.81
2023-10-11T05:54:18.079Z,98120.81
2023-10-11T05:56:48.617Z,98131.78
2023-10-11T05:59:17.695Z,98133.19
2023-10-11T06:01:46.233Z,98125.00
2023-10-11T06:04:15.330Z,98130.09
2023-10-11T06:06:46.619Z,98138.75
2023-10-11T06:09:19.450Z,98134.28
2023-10-11T06:11:50.666Z,98138.63
2023-10-11T06:14:20.931Z,98137.47
2023-10-11T06:16:58.185Z,98139.84
2023-10-11T06:19:28.324Z,98141.13
2023-10-11T06:21:58.636Z,98146.41
2023-10-11T06:24:34.145Z,98152.69
2023-10-11T06:27:29.770Z,98142.59
2023-10-11T06:29:58.333Z,98144.50
2023-10-11T06:32:26.974Z,98145.97
2023-10-11T06:34:55.175Z,98144.75
2023-10-11T06:37:25.407Z,98150.91
2023-10-11T06:40:15.635Z,98156.41
2023-10-11T06:42:43.573Z,98147.75
2023-10-11T06:45:18.909Z,98146.38
2023-10-11T06:47:51.393Z,98142.41
2023-10-11T06:50:25.253Z,98142.47
2023-10-11T06:52:54.589Z,98140.22
2023-10-11T06:55:27.459Z,98140.50
2023-10-11T06:57:56.974Z,98141.78
2023-10-11T07:00:29.352Z,98140.16
2023-10-11T07:03:08.642Z,98137.09
2023-10-11T07:05:41.783Z,98145.09
2023-10-11T07:08:10.850Z,98147.66
2023-10-11T07:10:46.716Z,98141.66
2023-10-11T07:13:16.481Z,98142.28
2023-10-11T07:15:47.268Z,98141.69
2023-10-11T07:18:26.122Z,98147.06
2023-10-11T07:21:08.587Z,98143.69
2023-10-11T07:23:57.018Z,98138.22
2023-10-11T07:26:42.612Z,98133.94
2023-10-11T07:29:12.769Z,98140.69
2023-10-11T07:31:49.812Z,98140.59
2023-10-11T07:34:20.060Z,98144.72
2023-10-11T07:36:50.557Z,98144.44
2023-10-11T07:39:26.446Z,98149.09
2023-10-11T07:42:05.423Z,98153.38
2023-10-11T07:44:37.747Z,98141.84
2023-10-11T07:47:09.486Z,98147.13
2023-10-11T07:49:40.659Z,98146.88
2023-10-11T07:52:14.942Z,98147.88
2023-10-11T07:54:44.300Z,98142.19
2023-10-11T07:57:15.849Z,98141.00
2023-10-11T07:59:45.657Z,98143.22
2023-10-11T08:05:13.564Z,98141.94
2023-10-11T08:07:42.574Z,98146.78
2023-10-11T08:10:25.651Z,98139.63
2023-10-11T08:12:57.363Z,98146.78
2023-10-11T08:15:26.548Z,98142.97
2023-10-11T08:17:55.193Z,98144.75
2023-10-11T08:20:29.260Z,98148.84
2023-10-11T08:22:58.875Z,98149.53
2023-10-11T08:25:29.107Z,98146.19
2023-10-11T08:28:13.327Z,98128.81
2023-10-11T08:30:46.719Z,98132.69
2023-10-11T08:33:15.476Z,98126.25
2023-10-11T08:35:49.342Z,98123.94
2023-10-11T08:38:20.082Z,98125.59
2023-10-11T08:40:51.481Z,98123.09
2023-10-11T08:43:22.059Z,98123.63
2023-10-11T08:46:01.077Z,98121.31
2023-10-11T08:48:30.140Z,98127.31
2023-10-11T08:51:00.372Z,98130.31
2023-10-11T08:53:32.364Z,98122.53
2023-10-11T08:56:00.959Z,98121.13
2023-10-11T08:58:29.950Z,98114.94
2023-10-11T09:01:00.270Z,98120.78
2023-10-11T09:03:32.926Z,98108.75
2023-10-11T09:06:02.925Z,98113.63
2023-10-11T09:08:36.741Z,98107.06
2023-10-11T09:11:29.882Z,98110.13
2023-10-11T09:14:23.800Z,98109.06
2023-10-11T09:16:53.206Z,98107.81
2023-10-11T09:19:23.080Z,98102.41
2023-10-11T09:22:04.820Z,98107.38
2023-10-11T09:24:44.809Z,98114.09
2023-10-11T09:27:20.303Z,98109.88
2023-10-11T09:29:52.338Z,98102.25
2023-10-11T09:32:28.235Z,98107.69
2023-10-11T09:34:55.806Z,98103.94
2023-10-11T09:37:28.855Z,98104.31
2023-10-11T09:40:02.178Z,98096.94
2023-10-11T09:42:31.583Z,98098.41
2023-10-11T09:45:02.183Z,98102.59
2023-10-11T09:47:32.429Z,98100.09
2023-10-11T09:50:08.375Z,98109.16
2023-10-11T09:52:38.007Z,98100.34
2023-10-11T09:55:18.772Z,98095.34
2023-10-11T09:58:01.057Z,98093.09
2023-10-11T10:00:42.138Z,98089.78
2023-10-11T10:03:14.566Z,98088.53
2023-10-11T10:06:09.702Z,98094.66
2023-10-11T10:08:39.321Z,98084.84
2023-10-11T10:11:13.389Z,98085.75
2023-10-11T10:14:07.066Z,98075.06
2023-10-11T10:17:11.901Z,98081.50
2023-10-11T10:19:45.089Z,98076.25
2023-10-11T10:22:17.318Z,98074.28
2023-10-11T10:24:49.369Z,98075.97
2023-10-11T10:27:49.656Z,98078.41
2023-10-11T10:30:22.924Z,98076.31
2023-10-11T10:33:22.271Z,98071.81
2023-10-11T10:35:50.917Z,98065.66
2023-10-11T10:38:23.925Z,98065.06
2023-10-11T10:41:26.663Z,98060.81
2023-10-11T10:44:07.423Z,98061.00
2023-10-11T10:46:37.550Z,98054.78
2023-10-11T10:49:05.282Z,98049.66
2023-10-11T10:51:36.828Z,98050.50
2023-10-11T10:54:14.088Z,98049.34
2023-10-11T10:56:48.636Z,98047.06
2023-10-11T10:59:21.633Z,98039.66
2023-10-11T11:01:54.028Z,98034.25
2023-10-11T11:04:30.136Z,98033.88
2023-10-11T11:06:59.512Z,98021.56
2023-10-11T11:09:27.210Z,98018.75
2023-10-11T11:12:17.904Z,98004.38
2023-10-11T11:14:55.363Z,97990.03
2023-10-11T11:17:25.188Z,97994.66
2023-10-11T11:20:14.407Z,97992.19
2023-10-11T11:22:49.159Z,97986.22
2023-10-11T11:25:19.787Z,97986.25
2023-10-11T11:28:02.728Z,97977.22
2023-10-11T11:30:34.957Z,97981.31
2023-10-11T11:33:15.126Z,97969.63
2023-10-11T11:35:45.258Z,97973.44
2023-10-11T11:38:22.081Z,97968.19
2023-10-11T11:40:52.438Z,97968.72
2023-10-11T11:43:22.575Z,97959.25
2023-10-11T11:45:57.747Z,97969.34
2023-10-11T11:48:26.299Z,97964.53
2023-10-11T11:50:57.657Z,97969.88
2023-10-11T11:53:27.736Z,97967.81
2023-10-11T11:55:54.939Z,97966.28
2023-10-11T11:58:24.541Z,97962.03
2023-10-11T12:01:09.797Z,97953.34
2023-10-11T12:03:39.087Z,97954.56
2023-10-11T12:06:23.134Z,97950.88
2023-10-11T12:08:59.117Z,97933.13
2023-10-11T12:11:30.827Z,97928.28
2023-10-11T12:14:05.128Z,97932.25
2023-10-11T12:16:33.556Z,97928.59
2023-10-11T12:19:02.000Z,97929.84
2023-10-11T12:21:34.673Z,97923.50
2023-10-11T12:24:11.508Z,97920.25
2023-10-11T12:26:48.739Z,97919.50
2023-10-11T12:29:19.592Z,97924.81
2023-10-11T12:31:47.901Z,97922.59
2023-10-11T12:34:18.194Z,97920.19
2023-10-11T12:36:53.072Z,97910.50
2023-10-11T12:39:23.312Z,97912.25
2023-10-11T12:41:53.005Z,97913.66
2023-10-11T12:44:23.517Z,97915.19
2023-10-11T12:46:53.263Z,97903.19
2023-10-11T12:49:21.606Z,97903.81
2023-10-11T12:51:51.200Z,97905.56
2023-10-11T12:54:21.017Z,97909.28
2023-10-11T12:56:49.771Z,97904.91
2023-10-11T12:59:20.928Z,97900.28
2023-10-11T13:01:53.573Z,97898.53
2023-10-11T13:04:28.981Z,97896.44
2023-10-11T13:07:00.379Z,97891.00
2023-10-11T13:09:31.821Z,97886.22
2023-10-11T13:12:03.934Z,97886.66
2023-10-11T13:14:34.535Z,97887.31
2023-10-11T13:17:08.941Z,97883.16
2023-10-11T13:19:38.028Z,97880.91
2023-10-11T13:22:10.810Z,97874.09
2023-10-11T13:24:39.269Z,97884.88
2023-10-11T13:27:09.068Z,97885.53
2023-10-11T13:29:38.753Z,97873.06
2023-10-11T13:32:09.362Z,97866.97
2023-10-11T13:34:37.709Z,97862.19
2023-10-11T13:37:09.688Z,97861.59
2023-10-11T13:39:46.953Z,97858.72
2023-10-11T13:42:16.876Z,97848.47
2023-10-11T13:44:45.745Z,97844.75
2023-10-11T13:47:15.881Z,97848.28
2023-10-11T13:49:48.673Z,97848.94
2023-10-11T13:52:20.565Z,97847.75
2023-10-11T13:54:52.784Z,97843.25
2023-10-11T13:57:22.500Z,97848.28
2023-10-11T13:59:52.160Z,97845.69
2023-10-11T14:02:35.625Z,97845.94
2023-10-11T14:05:22.724Z,97845.06
2023-10-11T14:07:55.520Z,97844.84
2023-10-11T14:10:28.045Z,97837.50
2023-10-11T14:13:08.921Z,97836.81
2023-10-11T14:15:39.056Z,97824.00
2023-10-11T14:18:16.488Z,97823.78
2023-10-11T14:20:50.670Z,97824.84
2023-10-11T14:23:18.868Z,97821.63
2023-10-11T14:25:47.269Z,97819.94
2023-10-11T14:28:16.671Z,97819.94
2023-10-11T14:30:47.540Z,97818.44
2023-10-11T14:33:19.199Z,97813.41
2023-10-11T14:35:48.438Z,97807.81
2023-10-11T14:38:17.794Z,97805.69
2023-10-11T14:40:48.080Z,97798.03
2023-10-11T14:43:17.742Z,97796.94
2023-10-11T14:45:49.321Z,97788.97
2023-10-11T14:48:19.417Z,97801.00
2023-10-11T14:50:48.033Z,97792.84
2023-10-11T14:53:16.932Z,97796.50
2023-10-11T14:55:46.068Z,97796.56
2023-10-11T14:58:16.091Z,97799.78
2023-10-11T15:00:46.971Z,97796.75
2023-10-11T15:03:15.631Z,97799.22
2023-10-11T15:05:46.288Z,97797.50
2023-10-11T15:08:17.050Z,97797.88
2023-10-11T15:10:49.344Z,97796.28
2023-10-11T15:13:17.948Z,97795.97
2023-10-11T15:15:47.063Z,97797.94
2023-10-11T15:18:15.960Z,97789.25
2023-10-11T15:20:47.116Z,97796.13
2023-10-11T15:23:15.310Z,97798.13
2023-10-11T15:25:44.733Z,97798.94
2023-10-11T15:28:13.502Z,97790.66
2023-10-11T15:30:43.034Z,97785.13
2023-10-11T15:33:13.699Z,97788.72
2023-10-11T15:35:48.333Z,97791.13
2023-10-11T15:38:17.929Z,97789.22
2023-10-11T15:40:48.072Z,97793.56
2023-10-11T15:43:19.383Z,97787.63
2023-10-11T15:45:52.657Z,97793.94
2023-10-11T15:48:21.557Z,97791.59
2023-10-11T15:50:50.079Z,97780.09
2023-10-11T15:53:22.184Z,97793.94
2023-10-11T15:55:50.354Z,97789.59
2023-10-11T15:58:18.491Z,97796.69
2023-10-11T16:00:47.119Z,97795.88
2023-10-11T16:03:16.272Z,97788.75
2023-10-11T16:05:44.902Z,97796.28
2023-10-11T16:08:15.160Z,97795.78
2023-10-11T16:10:45.307Z,97799.34
2023-10-11T16:13:14.284Z,97796.53
2023-10-11T16:15:42.960Z,97800.84
2023-10-11T16:18:11.628Z,97805.50
2023-10-11T16:20:40.382Z,97803.09
2023-10-11T16:23:09.280Z,97802.25
2023-10-11T16:25:37.489Z,97805.78
2023-10-11T16:28:10.848Z,97803.72
2023-10-11T16:30:39.392Z,97805.25
2023-10-11T16:33:08.053Z,97818.19
2023-10-11T16:35:38.988Z,97811.09
2023-10-11T16:38:07.363Z,97815.75
2023-10-11T16:40:35.751Z,97814.97
2023-10-11T16:43:05.884Z,97816.06
2023-10-11T16:45:38.910Z,97814.06
2023-10-11T16:48:11.493Z,97813.97
2023-10-11T16:50:41.052Z,97820.34
2023-10-11T16:53:09.645Z,97821.84
2023-10-11T16:55:38.314Z,97819.09
2023-10-11T16:58:06.839Z,97815.97
2023-10-11T17:00:36.904Z,97815.19
2023-10-11T17:03:07.750Z,97824.94
2023-10-11T17:05:36.427Z,97828.81
2023-10-11T17:08:06.179Z,97826.06
2023-10-11T17:10:35.058Z,97829.59
2023-10-11T17:13:03.995Z,97826.06
2023-10-11T17:15:34.345Z,97829.13
2023-10-11T17:18:05.533Z,97827.88
2023-10-11T17:20:34.200Z,97825.91
2023-10-11T17:23:02.731Z,97830.22
2023-10-11T17:25:31.315Z,97832.91
2023-10-11T17:28:00.055Z,97840.78
2023-10-11T17:30:31.936Z,97844.66
2023-10-11T17:33:03.926Z,97845.38
2023-10-11T17:35:37.048Z,97835.91
2023-10-11T17:38:07.670Z,97834.56
2023-10-11T17:40:38.688Z,97834.16
2023-10-11T17:43:08.169Z,97837.81
2023-10-11T17:45:36.891Z,97832.41
2023-10-11T17:48:07.563Z,97837.44
2023-10-11T17:50:36.544Z,97843.75
2023-10-11T17:53:05.654Z,97838.06
2023-10-11T17:55:34.746Z,97836.06
2023-10-11T17:58:07.332Z,97845.00
2023-10-11T18:00:38.985Z,97853.16
2023-10-11T18:03:09.455Z,97849.47
2023-10-11T18:05:39.436Z,97845.19
2023-10-11T18:08:08.256Z,97850.66
2023-10-11T18:10:38.659Z,97846.66
2023-10-11T18:13:06.935Z,97854.53
2023-10-11T18:15:35.399Z,97850.47
2023-10-11T18:18:06.116Z,97852.53
2023-10-11T18:20:38.140Z,97845.50
2023-10-11T18:23:09.463Z,97842.91
2023-10-11T18:25:39.020Z,97850.47
2023-10-11T18:28:07.635Z,97848.06
2023-10-11T18:30:36.497Z,97854.03
2023-10-11T18:33:05.851Z,97848.09
2023-10-11T18:35:40.470Z,97843.41
2023-10-11T18:38:09.124Z,97843.41
2023-10-11T18:40:37.624Z,97845.66
2023-10-11T18:43:07.742Z,97835.69
2023-10-11T18:45:37.984Z,97837.75
2023-10-11T18:48:07.873Z,97832.13
2023-10-11T18:50:37.564Z,97830.06
2023-10-11T18:53:05.753Z,97829.59
2023-10-11T18:55:34.606Z,97828.72
2023-10-11T18:58:02.909Z,97830.31
2023-10-11T19:00:34.508Z,97830.59
2023-10-11T19:03:08.251Z,97828.88
2023-10-11T19:05:40.479Z,97824.66
2023-10-11T19:08:08.915Z,97817.06
2023-10-11T19:10:38.806Z,97811.75
2023-10-11T19:13:07.171Z,97820.03
2023-10-11T19:15:35.419Z,97816.81
2023-10-11T19:18:07.388Z,97811.38
2023-10-11T19:20:37.273Z,97820.47
2023-10-11T19:23:05.783Z,97815.03
2023-10-11T19:25:34.424Z,97817.88
2023-10-11T19:28:02.696Z,97826.91
2023-10-11T19:30:31.138Z,97822.69
2023-10-11T19:32:59.342Z,97820.19
2023-10-11T19:35:27.562Z,97820.63
2023-10-11T19:37:59.055Z,97825.75
2023-10-11T19:40:28.525Z,97826.84
2023-10-11T19:42:57.151Z,97820.09
2023-10-11T19:45:26.124Z,97816.22
2023-10-11T19:47:55.164Z,97814.50
2023-10-11T19:50:27.289Z,97817.19
2023-10-11T19:52:56.919Z,97821.19
2023-10-11T19:55:30.292Z,97820.00
2023-10-11T19:58:00.984Z,97808.25
2023-10-11T20:00:34.262Z,97812.25
2023-10-11T20:03:04.037Z,97813.59
2023-10-11T20:05:32.808Z,97813.63
2023-10-11T20:08:02.316Z,97810.88
2023-10-11T20:10:30.945Z,97806.84
2023-10-11T20:12:59.204Z,97807.16
2023-10-11T20:15:28.250Z,97806.31
2023-10-11T20:17:56.428Z,97800.75
2023-10-11T20:20:25.968Z,97806.09
2023-10-11T20:22:56.925Z,97803.16
2023-10-11T20:25:26.545Z,97803.09
2023-10-11T20:27:54.739Z,97803.16
2023-10-11T20:30:27.442Z,97803.47
2023-10-11T20:32:58.016Z,97804.63
2023-10-11T20:35:27.521Z,97801.63
2023-10-11T20:38:02.841Z,97800.72
2023-10-11T20:40:32.866Z,97799.41
2023-10-11T20:43:01.031Z,97793.13
2023-10-11T20:45:29.195Z,97803.19
2023-10-11T20:47:58.029Z,97801.16
2023-10-11T20:50:32.915Z,97796.25
2023-10-11T20:53:03.446Z,97796.16
2023-10-11T20:55:38.245Z,97792.41
2023-10-11T20:58:19.396Z,97804.31
2023-10-11T21:00:50.662Z,97798.41
2023-10-11T21:03:22.118Z,97805.00
2023-10-11T21:05:52.553Z,97800.19
2023-10-11T21:08:26.252Z,97808.03
2023-10-11T21:10:56.146Z,97808.66
2023-10-11T21:13:26.819Z,97806.63
2023-10-11T21:16:03.657Z,97806.69
2023-10-11T21:18:32.630Z,97804.03
2023-10-11T21:21:01.020Z,97805.09
2023-10-11T21:23:29.778Z,97799.13
2023-10-11T21:26:01.506Z,97808.03
2023-10-11T21:28:30.440Z,97806.56
2023-10-11T21:30:58.880Z,97809.28
2023-10-11T21:33:29.882Z,97811.09
2023-10-11T21:36:00.461Z,97806.75
2023-10-11T21:38:31.512Z,97800.31
2023-10-11T21:41:01.449Z,97807.22
2023-10-11T21:43:29.992Z,97800.22
2023-10-11T21:45:58.664Z,97802.97
2023-10-11T21:48:26.030Z,97800.13
2023-10-11T21:50:54.268Z,97802.53
2023-10-11T21:53:23.234Z,97800.22
2023-10-11T21:55:52.914Z,97794.06
2023-10-11T21:58:25.352Z,97797.38
2023-10-11T22:00:58.040Z,97786.63
2023-10-11T22:03:26.335Z,97790.00
2023-10-11T22:05:55.369Z,97786.34
2023-10-11T22:08:25.444Z,97786.38
2023-10-11T22:10:55.877Z,97791.13
2023-10-11T22:13:26.409Z,97785.91
2023-10-11T22:15:54.735Z,97783.13
2023-10-11T22:18:23.772Z,97787.78
2023-10-11T22:20:52.355Z,97786.47
2023-10-11T22:23:22.025Z,97788.78
2023-10-11T22:25:51.475Z,97784.09
2023-10-11T22:28:20.196Z,97790.25
2023-10-11T22:30:51.268Z,97781.63
2023-10-11T22:33:23.321Z,97785.44
2023-10-11T22:35:53.228Z,97792.75
2023-10-11T22:38:21.926Z,97791.78
2023-10-11T22:40:51.154Z,97790.09
2023-10-11T22:43:29.785Z,97788.50
2023-10-11T22:46:01.130Z,97780.19
2023-10-11T22:48:29.428Z,97794.25
2023-10-11T22:50:58.177Z,97785.84
2023-10-11T22:53:26.360Z,97785.31
2023-10-11T22:55:54.733Z,97786.63
2023-10-11T22:58:22.916Z,97783.63
2023-10-11T23:00:51.311Z,97788.47
2023-10-11T23:03:21.603Z,97782.44
2023-10-11T23:05:50.116Z,97781.56
2023-10-11T23:08:18.752Z,97778.91
2023-10-11T23:10:50.890Z,97769.91
2023-10-11T23:13:19.249Z,97768.41
2023-10-11T23:15:53.393Z,97764.59
2023-10-11T23:18:28.323Z,97767.88
2023-10-11T23:21:01.326Z,97775.28
2023-10-11T23:23:40.363Z,97776.09
2023-10-11T23:26:10.153Z,97770.06
2023-10-11T23:28:39.622Z,97776.56
2023-10-11T23:31:10.832Z,97771.22
2023-10-11T23:33:51.394Z,97774.97
2023-10-11T23:36:25.699Z,97773.97
2023-10-11T23:39:02.965Z,97760.28
2023-10-11T23:41:45.868Z,97779.44
2023-10-11T23:44:23.666Z,97781.41
2023-10-11T23:47:01.444Z,97783.34
2023-10-11T23:52:07.374Z,97773.69
2023-10-11T23:54:39.645Z,97776.56
2023-10-11T23:57:20.360Z,97779.16
2023-10-11T23:59:48.567Z,97780.22
